createdAt,value
2018-11-21T20:15:27.420Z,4.6
2018-11-21T20:16:27.000Z,4.63
2018-11-21T20:17:27.431Z,4.56
2018-11-21T20:18:26.978Z,4.52
2018-11-21T20:19:27.017Z,4.5
2018-11-21T20:20:27.013Z,4.6
2018-11-21T20:21:27.036Z,4.56
2018-11-21T20:22:27.142Z,4.58
2018-11-21T20:23:27.112Z,4.68
2018-11-21T20:24:27.055Z,4.52
2018-11-21T20:25:27.098Z,4.57
2018-11-21T20:26:27.128Z,4.63
2018-11-21T20:27:27.075Z,4.63
2018-11-21T20:28:27.041Z,4.6
2018-11-21T20:29:27.293Z,4.58
2018-11-21T20:30:27.050Z,4.58
2018-11-21T20:31:27.054Z,4.61
2018-11-21T20:32:27.106Z,4.7
2018-11-21T20:33:27.118Z,4.6
2018-11-21T20:34:27.112Z,4.57
2018-11-21T20:35:27.158Z,4.57
2018-11-21T20:36:27.102Z,4.57
2018-11-21T20:37:27.200Z,4.6
2018-11-21T20:38:27.146Z,4.5
2018-11-21T20:39:27.489Z,4.61
2018-11-21T20:40:27.107Z,4.56
2018-11-21T20:41:27.127Z,4.56
2018-11-21T20:42:27.102Z,4.57
2018-11-21T20:43:27.113Z,4.6
2018-11-21T20:44:27.145Z,4.61
2018-11-21T20:45:27.088Z,4.64
2018-11-21T20:46:27.071Z,4.61
2018-11-21T20:47:27.030Z,4.53
2018-11-21T20:48:27.107Z,4.57
2018-11-21T20:49:27.121Z,4.6
2018-11-21T20:50:27.432Z,4.53
2018-11-21T20:51:27.161Z,4.57
2018-11-21T20:52:26.970Z,4.6
2018-11-21T20:53:27.041Z,4.63
2018-11-21T20:54:27.078Z,4.6
2018-11-21T20:55:27.072Z,4.5
2018-11-21T20:56:27.045Z,4.63
2018-11-21T20:57:27.680Z,4.56
2018-11-21T20:58:27.048Z,4.61
2018-11-21T20:59:27.146Z,4.48
2018-11-21T21:00:27.189Z,4.61
2018-11-21T21:01:27.156Z,4.52
2018-11-21T21:02:27.171Z,4.5
2018-11-21T21:03:27.171Z,4.58
2018-11-21T21:04:27.146Z,4.53
2018-11-21T21:05:27.183Z,4.57
2018-11-21T21:06:27.306Z,4.63
2018-11-21T21:07:27.196Z,4.5
2018-11-21T21:08:27.140Z,4.43
2018-11-21T21:09:27.149Z,4.5
2018-11-21T21:10:27.228Z,4.5
2018-11-21T21:11:27.160Z,4.52
2018-11-21T21:12:27.224Z,4.46
2018-11-21T21:13:27.105Z,4.52
2018-11-21T21:14:27.126Z,4.53
2018-11-21T21:15:27.132Z,4.5
2018-11-21T21:16:27.101Z,4.49
2018-11-21T21:17:27.055Z,4.56
2018-11-21T21:18:27.097Z,4.57
2018-11-21T21:19:27.090Z,4.52
2018-11-21T21:20:29.430Z,4.48
2018-11-21T21:21:27.068Z,4.58
2018-11-21T21:22:27.094Z,4.48
2018-11-21T21:23:27.104Z,4.49
2018-11-21T21:24:27.090Z,4.52
2018-11-21T21:25:27.107Z,4.56
2018-11-21T21:26:27.428Z,4.57
2018-11-21T21:27:27.117Z,4.6
2018-11-21T21:28:27.095Z,4.61
2018-11-21T21:29:27.083Z,4.61
2018-11-21T21:30:27.191Z,4.64
2018-11-21T21:31:27.092Z,4.63
2018-11-21T21:32:27.080Z,4.64
2018-11-21T21:33:27.134Z,4.6
2018-11-21T21:34:27.082Z,4.71
2018-11-21T21:35:27.172Z,4.79
2018-11-21T21:36:27.182Z,4.64
2018-11-21T21:37:27.190Z,4.7
2018-11-21T21:38:27.271Z,4.67
2018-11-21T21:39:27.246Z,4.66
2018-11-21T21:40:28.346Z,4.63
2018-11-21T21:41:27.272Z,4.63
2018-11-21T21:45:56.493Z,4.67
2018-11-21T21:46:56.524Z,4.64
2018-11-21T21:47:56.681Z,4.64
2018-11-21T21:48:56.551Z,4.61
2018-11-21T21:49:56.496Z,4.68
2018-11-21T21:50:56.562Z,4.63
2018-11-21T21:51:56.569Z,4.63
2018-11-21T21:52:56.604Z,4.7
2018-11-21T21:53:56.558Z,4.61
2018-11-21T21:54:56.560Z,4.63
2018-11-21T21:55:56.607Z,4.71
2018-11-21T21:56:56.497Z,4.64
2018-11-21T21:57:56.548Z,4.66
2018-11-21T22:02:27.814Z,4.71
2018-11-21T22:03:26.363Z,4.74
2018-11-21T22:04:26.444Z,4.7
2018-11-21T22:05:26.389Z,4.78
2018-11-21T22:06:26.380Z,4.78
2018-11-21T22:07:26.466Z,4.67
2018-11-21T22:08:26.509Z,4.64
2018-11-21T22:10:31.048Z,4.76
2018-11-21T22:10:43.059Z,4.78
2018-11-21T22:11:42.992Z,4.66
2018-11-21T22:12:43.003Z,4.74
2018-11-21T22:13:43.031Z,4.64
2018-11-21T22:14:43.025Z,4.75
2018-11-21T22:15:43.045Z,4.66
2018-11-21T22:16:43.082Z,4.68
2018-11-21T22:17:43.344Z,4.66
2018-11-21T22:18:43.052Z,4.64
2018-11-21T22:19:42.973Z,4.56
2018-11-21T22:20:43.026Z,4.63
2018-11-21T22:21:43.023Z,4.58
2018-11-21T22:22:43.008Z,4.6
2018-11-21T22:23:43.045Z,4.7
2018-11-21T22:24:43.066Z,4.61
2018-11-21T22:25:43.048Z,4.61
2018-11-21T22:26:43.065Z,4.58
2018-11-21T22:27:43.058Z,4.71
2018-11-21T22:28:43.028Z,4.61
2018-11-21T22:29:43.212Z,4.57
2018-11-21T22:30:43.039Z,4.61
2018-11-21T22:31:43.149Z,4.63
2018-11-21T22:32:43.073Z,4.67
2018-11-21T22:33:43.126Z,4.66
2018-11-21T22:34:43.108Z,4.76
2018-11-21T22:35:43.021Z,4.67
2018-11-21T22:36:43.078Z,4.66
2018-11-21T22:37:43.149Z,4.71
2018-11-21T22:38:43.060Z,4.66
2018-11-21T22:39:43.033Z,4.71
2018-11-21T22:40:43.064Z,4.64
2018-11-21T22:41:43.113Z,4.75
2018-11-21T22:42:43.120Z,4.7
2018-11-21T22:43:43.096Z,4.66
2018-11-21T22:44:43.163Z,4.76
2018-11-21T22:45:43.171Z,4.78
2018-11-21T22:46:43.110Z,4.76
2018-11-21T22:47:43.188Z,4.7
2018-11-21T22:48:43.194Z,4.79
2018-11-21T22:49:43.126Z,4.7
2018-11-21T22:50:43.182Z,4.78
2018-11-21T22:51:44.383Z,4.7
2018-11-21T22:52:43.145Z,4.66
2018-11-21T22:53:43.190Z,4.71
2018-11-21T22:54:43.198Z,4.66
2018-11-21T22:55:43.399Z,4.67
2018-11-21T22:56:43.275Z,4.68
2018-11-21T22:57:43.148Z,4.71
2018-11-21T22:58:43.187Z,4.74
2018-11-21T22:59:43.192Z,4.74
2018-11-21T23:00:43.239Z,4.67
2018-11-21T23:01:43.205Z,4.7
2018-11-21T23:02:43.214Z,4.66
2018-11-21T23:03:43.226Z,4.63
2018-11-21T23:04:43.164Z,4.7
2018-11-21T23:05:43.680Z,4.67
2018-11-21T23:06:43.214Z,4.66
2018-11-21T23:07:43.210Z,4.66
2018-11-21T23:08:48.134Z,4.63
2018-11-21T23:09:43.195Z,4.67
2018-11-21T23:10:43.203Z,4.7
2018-11-21T23:11:43.172Z,4.76
2018-11-21T23:12:43.255Z,4.64
2018-11-21T23:13:43.183Z,4.76
2018-11-21T23:14:43.196Z,4.82
2018-11-21T23:15:43.207Z,4.66
2018-11-21T23:16:43.249Z,4.78
2018-11-21T23:17:43.214Z,4.74
2018-11-21T23:18:43.222Z,4.78
2018-11-21T23:19:43.226Z,4.82
2018-11-21T23:20:43.230Z,4.75
2018-11-21T23:21:43.241Z,4.7
2018-11-21T23:22:43.213Z,4.7
2018-11-21T23:23:43.223Z,4.61
2018-11-21T23:24:43.230Z,4.67
2018-11-21T23:25:43.232Z,4.63
2018-11-21T23:26:43.239Z,4.68
2018-11-21T23:27:43.212Z,4.71
2018-11-21T23:28:43.281Z,4.74
2018-11-21T23:29:43.263Z,4.7
2018-11-21T23:30:43.239Z,4.68
2018-11-21T23:31:43.201Z,4.71
2018-11-21T23:32:43.215Z,4.66
2018-11-21T23:33:43.217Z,4.66
2018-11-21T23:34:43.393Z,4.68
2018-11-21T23:35:43.233Z,4.78
2018-11-21T23:36:43.232Z,4.75
2018-11-21T23:37:43.246Z,4.66
2018-11-21T23:38:43.245Z,4.68
2018-11-21T23:39:43.252Z,4.74
2018-11-21T23:40:43.259Z,4.75
2018-11-21T23:41:43.264Z,4.74
2018-11-21T23:42:43.243Z,4.61
2018-11-21T23:43:43.320Z,4.7
2018-11-21T23:44:43.267Z,4.66
2018-11-21T23:45:43.366Z,4.78
2018-11-21T23:46:43.236Z,4.74
2018-11-21T23:47:43.275Z,4.66
2018-11-21T23:48:43.209Z,4.79
2018-11-21T23:49:44.344Z,4.63
2018-11-21T23:50:43.399Z,4.64
2018-11-21T23:51:43.274Z,4.64
2018-11-21T23:52:43.378Z,4.5
2018-11-21T23:53:43.244Z,4.64
2018-11-21T23:54:43.239Z,4.6
2018-11-21T23:55:43.327Z,4.74
2018-11-21T23:56:43.414Z,4.68
2018-11-21T23:57:43.274Z,4.68
2018-11-21T23:58:43.314Z,4.66
2018-11-21T23:59:43.189Z,4.61
